sensor_id;sensor_type;location;lat;lon;timestamp;P1;durP1;ratioP1;P2;durP2;ratioP2
48534;SDS011;34323;52.022;5.686;2022-12-10T00:01:20;48.47;;;20.52;;
48534;SDS011;34323;52.022;5.686;2022-12-10T00:03:47;46.78;;;18.35;;
48534;SDS011;34323;52.022;5.686;2022-12-10T00:06:14;42.13;;;18.33;;
48534;SDS011;34323;52.022;5.686;2022-12-10T00:08:41;45.90;;;19.60;;
48534;SDS011;34323;52.022;5.686;2022-12-10T00:11:08;40.90;;;18.63;;
48534;SDS011;34323;52.022;5.686;2022-12-10T00:13:35;44.45;;;18.88;;
48534;SDS011;34323;52.022;5.686;2022-12-10T00:16:02;43.55;;;20.35;;
48534;SDS011;34323;52.022;5.686;2022-12-10T00:18:29;44.55;;;21.00;;
48534;SDS011;34323;52.022;5.686;2022-12-10T00:20:54;49.25;;;20.48;;
48534;SDS011;34323;52.022;5.686;2022-12-10T00:23:20;50.95;;;20.83;;
48534;SDS011;34323;52.022;5.686;2022-12-10T00:25:46;46.13;;;19.33;;
48534;SDS011;34323;52.022;5.686;2022-12-10T00:28:12;36.95;;;17.98;;
48534;SDS011;34323;52.022;5.686;2022-12-10T00:30:37;39.50;;;19.35;;
48534;SDS011;34323;52.022;5.686;2022-12-10T00:33:03;60.58;;;22.10;;
48534;SDS011;34323;52.022;5.686;2022-12-10T00:35:28;45.85;;;20.10;;
48534;SDS011;34323;52.022;5.686;2022-12-10T00:37:54;49.72;;;20.50;;
48534;SDS011;34323;52.022;5.686;2022-12-10T00:40:20;41.55;;;19.92;;
48534;SDS011;34323;52.022;5.686;2022-12-10T00:42:46;47.10;;;19.20;;
48534;SDS011;34323;52.022;5.686;2022-12-10T00:45:11;42.72;;;19.20;;
48534;SDS011;34323;52.022;5.686;2022-12-10T00:47:37;47.83;;;20.30;;
48534;SDS011;34323;52.022;5.686;2022-12-10T00:50:02;47.72;;;18.92;;
48534;SDS011;34323;52.022;5.686;2022-12-10T00:52:28;44.13;;;19.75;;
48534;SDS011;34323;52.022;5.686;2022-12-10T00:54:54;45.30;;;18.73;;
48534;SDS011;34323;52.022;5.686;2022-12-10T00:57:19;42.97;;;19.30;;
48534;SDS011;34323;52.022;5.686;2022-12-10T00:59:45;38.47;;;18.85;;
48534;SDS011;34323;52.022;5.686;2022-12-10T01:02:10;48.45;;;20.05;;
48534;SDS011;34323;52.022;5.686;2022-12-10T01:04:36;44.53;;;19.70;;
48534;SDS011;34323;52.022;5.686;2022-12-10T01:07:01;46.95;;;18.73;;
48534;SDS011;34323;52.022;5.686;2022-12-10T01:09:28;43.67;;;18.95;;
48534;SDS011;34323;52.022;5.686;2022-12-10T01:11:55;44.33;;;17.95;;
48534;SDS011;34323;52.022;5.686;2022-12-10T01:14:24;39.47;;;17.65;;
48534;SDS011;34323;52.022;5.686;2022-12-10T01:16:57;48.65;;;18.15;;
48534;SDS011;34323;52.022;5.686;2022-12-10T01:19:28;40.75;;;18.13;;
48534;SDS011;34323;52.022;5.686;2022-12-10T01:21:55;39.90;;;17.88;;
48534;SDS011;34323;52.022;5.686;2022-12-10T01:24:26;47.25;;;20.30;;
48534;SDS011;34323;52.022;5.686;2022-12-10T01:26:52;43.92;;;18.40;;
48534;SDS011;34323;52.022;5.686;2022-12-10T01:29:20;36.03;;;17.23;;
48534;SDS011;34323;52.022;5.686;2022-12-10T01:31:45;42.42;;;18.27;;
48534;SDS011;34323;52.022;5.686;2022-12-10T01:34:16;46.05;;;20.35;;
48534;SDS011;34323;52.022;5.686;2022-12-10T01:36:42;44.90;;;20.17;;
48534;SDS011;34323;52.022;5.686;2022-12-10T01:39:10;46.53;;;19.70;;
48534;SDS011;34323;52.022;5.686;2022-12-10T01:41:40;46.33;;;20.42;;
48534;SDS011;34323;52.022;5.686;2022-12-10T01:46:40;48.78;;;19.58;;
48534;SDS011;34323;52.022;5.686;2022-12-10T01:49:09;44.17;;;19.70;;
48534;SDS011;34323;52.022;5.686;2022-12-10T01:51:41;47.63;;;19.20;;
48534;SDS011;34323;52.022;5.686;2022-12-10T01:54:10;37.28;;;18.23;;
48534;SDS011;34323;52.022;5.686;2022-12-10T01:56:40;43.78;;;19.08;;
48534;SDS011;34323;52.022;5.686;2022-12-10T01:59:08;40.78;;;18.77;;
48534;SDS011;34323;52.022;5.686;2022-12-10T02:10:11;43.47;;;20.08;;
48534;SDS011;34323;52.022;5.686;2022-12-10T02:13:04;52.00;;;21.10;;
48534;SDS011;34323;52.022;5.686;2022-12-10T02:15:44;49.28;;;19.55;;
48534;SDS011;34323;52.022;5.686;2022-12-10T02:21:07;41.60;;;18.45;;
48534;SDS011;34323;52.022;5.686;2022-12-10T02:23:46;56.65;;;20.63;;
48534;SDS011;34323;52.022;5.686;2022-12-10T02:31:37;52.97;;;21.20;;
48534;SDS011;34323;52.022;5.686;2022-12-10T02:34:07;45.10;;;19.70;;
48534;SDS011;34323;52.022;5.686;2022-12-10T02:36:35;45.63;;;20.02;;
48534;SDS011;34323;52.022;5.686;2022-12-10T02:39:03;51.65;;;22.67;;
48534;SDS011;34323;52.022;5.686;2022-12-10T02:41:34;42.58;;;19.45;;
48534;SDS011;34323;52.022;5.686;2022-12-10T02:44:03;54.42;;;21.52;;
48534;SDS011;34323;52.022;5.686;2022-12-10T02:46:32;41.90;;;20.38;;
48534;SDS011;34323;52.022;5.686;2022-12-10T02:49:01;48.25;;;21.55;;
48534;SDS011;34323;52.022;5.686;2022-12-10T02:51:28;47.58;;;20.80;;
48534;SDS011;34323;52.022;5.686;2022-12-10T02:53:58;44.45;;;19.40;;
48534;SDS011;34323;52.022;5.686;2022-12-10T02:56:33;41.25;;;18.67;;
48534;SDS011;34323;52.022;5.686;2022-12-10T03:02:09;47.65;;;20.88;;
48534;SDS011;34323;52.022;5.686;2022-12-10T03:05:05;47.67;;;18.88;;
48534;SDS011;34323;52.022;5.686;2022-12-10T03:07:46;43.55;;;18.05;;
48534;SDS011;34323;52.022;5.686;2022-12-10T03:10:27;50.15;;;19.67;;
48534;SDS011;34323;52.022;5.686;2022-12-10T03:12:59;54.47;;;20.15;;
48534;SDS011;34323;52.022;5.686;2022-12-10T03:15:29;45.30;;;20.08;;
48534;SDS011;34323;52.022;5.686;2022-12-10T03:17:58;46.58;;;19.23;;
48534;SDS011;34323;52.022;5.686;2022-12-10T03:20:27;48.67;;;22.13;;
48534;SDS011;34323;52.022;5.686;2022-12-10T03:22:56;50.60;;;18.63;;
48534;SDS011;34323;52.022;5.686;2022-12-10T03:25:23;54.65;;;21.00;;
48534;SDS011;34323;52.022;5.686;2022-12-10T03:27:51;53.47;;;23.67;;
48534;SDS011;34323;52.022;5.686;2022-12-10T03:30:20;47.92;;;22.08;;
48534;SDS011;34323;52.022;5.686;2022-12-10T03:32:46;54.75;;;22.20;;
48534;SDS011;34323;52.022;5.686;2022-12-10T03:35:12;56.03;;;23.17;;
48534;SDS011;34323;52.022;5.686;2022-12-10T03:37:39;52.70;;;22.50;;
48534;SDS011;34323;52.022;5.686;2022-12-10T03:40:05;47.90;;;20.67;;
48534;SDS011;34323;52.022;5.686;2022-12-10T03:42:33;56.88;;;24.23;;
48534;SDS011;34323;52.022;5.686;2022-12-10T03:45:00;60.15;;;22.92;;
48534;SDS011;34323;52.022;5.686;2022-12-10T03:47:26;66.43;;;25.42;;
48534;SDS011;34323;52.022;5.686;2022-12-10T03:49:51;64.57;;;25.15;;
48534;SDS011;34323;52.022;5.686;2022-12-10T03:52:17;55.78;;;23.67;;
48534;SDS011;34323;52.022;5.686;2022-12-10T03:54:43;68.93;;;25.88;;
48534;SDS011;34323;52.022;5.686;2022-12-10T03:57:08;68.10;;;26.30;;
48534;SDS011;34323;52.022;5.686;2022-12-10T03:59:34;69.72;;;28.63;;
48534;SDS011;34323;52.022;5.686;2022-12-10T04:01:59;68.65;;;26.63;;
48534;SDS011;34323;52.022;5.686;2022-12-10T04:04:25;85.32;;;29.58;;
48534;SDS011;34323;52.022;5.686;2022-12-10T04:06:50;80.53;;;30.50;;
48534;SDS011;34323;52.022;5.686;2022-12-10T04:09:16;75.40;;;25.42;;
48534;SDS011;34323;52.022;5.686;2022-12-10T04:11:42;73.75;;;27.50;;
48534;SDS011;34323;52.022;5.686;2022-12-10T04:14:09;82.05;;;29.27;;
48534;SDS011;34323;52.022;5.686;2022-12-10T04:16:54;59.20;;;26.23;;
48534;SDS011;34323;52.022;5.686;2022-12-10T04:19:19;80.05;;;28.42;;
48534;SDS011;34323;52.022;5.686;2022-12-10T04:21:46;81.03;;;26.50;;
48534;SDS011;34323;52.022;5.686;2022-12-10T04:24:31;74.70;;;27.17;;
48534;SDS011;34323;52.022;5.686;2022-12-10T04:27:30;84.75;;;26.92;;
48534;SDS011;34323;52.022;5.686;2022-12-10T04:29:58;117.03;;;31.00;;
48534;SDS011;34323;52.022;5.686;2022-12-10T04:32:25;108.65;;;33.42;;
48534;SDS011;34323;52.022;5.686;2022-12-10T04:34:52;175.52;;;35.92;;
48534;SDS011;34323;52.022;5.686;2022-12-10T04:37:19;103.43;;;31.83;;
48534;SDS011;34323;52.022;5.686;2022-12-10T04:39:45;79.70;;;27.75;;
48534;SDS011;34323;52.022;5.686;2022-12-10T04:42:11;81.75;;;29.85;;
48534;SDS011;34323;52.022;5.686;2022-12-10T04:44:37;193.90;;;31.95;;
48534;SDS011;34323;52.022;5.686;2022-12-10T04:47:04;106.68;;;28.77;;
48534;SDS011;34323;52.022;5.686;2022-12-10T04:49:31;108.88;;;29.75;;
48534;SDS011;34323;52.022;5.686;2022-12-10T04:51:56;119.10;;;29.13;;
48534;SDS011;34323;52.022;5.686;2022-12-10T04:54:22;115.55;;;27.67;;
48534;SDS011;34323;52.022;5.686;2022-12-10T04:56:48;133.35;;;27.70;;
48534;SDS011;34323;52.022;5.686;2022-12-10T04:59:14;92.32;;;29.55;;
48534;SDS011;34323;52.022;5.686;2022-12-10T05:01:39;88.88;;;25.35;;
48534;SDS011;34323;52.022;5.686;2022-12-10T05:04:06;105.38;;;30.05;;
48534;SDS011;34323;52.022;5.686;2022-12-10T05:06:34;137.93;;;29.90;;
48534;SDS011;34323;52.022;5.686;2022-12-10T05:09:00;95.68;;;25.30;;
48534;SDS011;34323;52.022;5.686;2022-12-10T05:11:27;79.97;;;24.20;;
48534;SDS011;34323;52.022;5.686;2022-12-10T05:13:54;80.63;;;26.35;;
48534;SDS011;34323;52.022;5.686;2022-12-10T05:16:22;103.50;;;24.75;;
48534;SDS011;34323;52.022;5.686;2022-12-10T05:18:49;93.72;;;27.73;;
48534;SDS011;34323;52.022;5.686;2022-12-10T05:21:16;89.78;;;26.83;;
48534;SDS011;34323;52.022;5.686;2022-12-10T05:23:43;91.60;;;27.10;;
48534;SDS011;34323;52.022;5.686;2022-12-10T05:26:12;93.03;;;24.58;;
48534;SDS011;34323;52.022;5.686;2022-12-10T05:28:43;73.20;;;16.23;;
48534;SDS011;34323;52.022;5.686;2022-12-10T05:31:20;76.80;;;27.30;;
48534;SDS011;34323;52.022;5.686;2022-12-10T05:33:48;55.80;;;20.65;;
48534;SDS011;34323;52.022;5.686;2022-12-10T05:36:15;76.65;;;24.67;;
48534;SDS011;34323;52.022;5.686;2022-12-10T05:38:43;89.82;;;27.20;;
48534;SDS011;34323;52.022;5.686;2022-12-10T05:41:09;83.10;;;26.92;;
48534;SDS011;34323;52.022;5.686;2022-12-10T05:43:41;97.47;;;30.25;;
48534;SDS011;34323;52.022;5.686;2022-12-10T05:46:09;128.40;;;29.40;;
48534;SDS011;34323;52.022;5.686;2022-12-10T05:48:37;126.47;;;34.45;;
48534;SDS011;34323;52.022;5.686;2022-12-10T05:51:21;138.60;;;32.30;;
48534;SDS011;34323;52.022;5.686;2022-12-10T05:53:49;74.00;;;25.15;;
48534;SDS011;34323;52.022;5.686;2022-12-10T05:56:17;164.05;;;33.20;;
48534;SDS011;34323;52.022;5.686;2022-12-10T05:58:44;123.10;;;29.67;;
48534;SDS011;34323;52.022;5.686;2022-12-10T06:01:15;108.88;;;30.38;;
48534;SDS011;34323;52.022;5.686;2022-12-10T06:03:42;109.05;;;30.15;;
48534;SDS011;34323;52.022;5.686;2022-12-10T06:06:08;101.32;;;31.55;;
48534;SDS011;34323;52.022;5.686;2022-12-10T06:08:35;97.25;;;31.25;;
48534;SDS011;34323;52.022;5.686;2022-12-10T06:11:05;103.97;;;29.90;;
48534;SDS011;34323;52.022;5.686;2022-12-10T06:13:32;92.13;;;28.60;;
48534;SDS011;34323;52.022;5.686;2022-12-10T06:15:57;109.10;;;27.17;;
48534;SDS011;34323;52.022;5.686;2022-12-10T06:18:23;144.55;;;27.70;;
48534;SDS011;34323;52.022;5.686;2022-12-10T06:20:49;126.20;;;29.95;;
48534;SDS011;34323;52.022;5.686;2022-12-10T06:23:14;100.85;;;27.92;;
48534;SDS011;34323;52.022;5.686;2022-12-10T06:25:40;121.60;;;31.90;;
48534;SDS011;34323;52.022;5.686;2022-12-10T06:28:06;92.95;;;29.65;;
48534;SDS011;34323;52.022;5.686;2022-12-10T06:30:32;93.60;;;28.70;;
48534;SDS011;34323;52.022;5.686;2022-12-10T06:32:58;139.40;;;28.60;;
48534;SDS011;34323;52.022;5.686;2022-12-10T06:35:24;103.72;;;27.27;;
48534;SDS011;34323;52.022;5.686;2022-12-10T06:37:50;144.15;;;31.50;;
48534;SDS011;34323;52.022;5.686;2022-12-10T06:40:16;160.27;;;27.58;;
48534;SDS011;34323;52.022;5.686;2022-12-10T06:42:41;146.40;;;30.63;;
48534;SDS011;34323;52.022;5.686;2022-12-10T06:45:07;154.07;;;30.30;;
48534;SDS011;34323;52.022;5.686;2022-12-10T06:47:33;153.40;;;30.02;;
48534;SDS011;34323;52.022;5.686;2022-12-10T06:49:58;115.18;;;29.92;;
48534;SDS011;34323;52.022;5.686;2022-12-10T06:52:24;131.38;;;27.02;;
48534;SDS011;34323;52.022;5.686;2022-12-10T06:54:50;109.05;;;26.05;;
48534;SDS011;34323;52.022;5.686;2022-12-10T06:57:15;115.45;;;27.48;;
48534;SDS011;34323;52.022;5.686;2022-12-10T06:59:41;86.20;;;25.90;;
48534;SDS011;34323;52.022;5.686;2022-12-10T07:02:07;94.72;;;26.35;;
48534;SDS011;34323;52.022;5.686;2022-12-10T07:04:36;86.00;;;26.33;;
48534;SDS011;34323;52.022;5.686;2022-12-10T07:07:02;147.52;;;27.30;;
48534;SDS011;34323;52.022;5.686;2022-12-10T07:09:27;77.68;;;24.60;;
48534;SDS011;34323;52.022;5.686;2022-12-10T07:11:53;93.10;;;28.23;;
48534;SDS011;34323;52.022;5.686;2022-12-10T07:14:18;79.95;;;27.63;;
48534;SDS011;34323;52.022;5.686;2022-12-10T07:16:44;107.18;;;27.17;;
48534;SDS011;34323;52.022;5.686;2022-12-10T07:19:10;122.13;;;31.27;;
48534;SDS011;34323;52.022;5.686;2022-12-10T07:21:37;122.45;;;29.48;;
48534;SDS011;34323;52.022;5.686;2022-12-10T07:24:06;117.70;;;26.45;;
48534;SDS011;34323;52.022;5.686;2022-12-10T07:26:37;112.97;;;28.48;;
48534;SDS011;34323;52.022;5.686;2022-12-10T07:29:05;85.43;;;24.50;;
48534;SDS011;34323;52.022;5.686;2022-12-10T07:31:32;90.90;;;22.35;;
48534;SDS011;34323;52.022;5.686;2022-12-10T07:33:59;113.70;;;25.40;;
48534;SDS011;34323;52.022;5.686;2022-12-10T07:36:25;122.72;;;27.77;;
48534;SDS011;34323;52.022;5.686;2022-12-10T07:38:51;98.00;;;28.67;;
48534;SDS011;34323;52.022;5.686;2022-12-10T07:41:18;106.82;;;31.25;;
48534;SDS011;34323;52.022;5.686;2022-12-10T07:43:45;90.03;;;27.02;;
48534;SDS011;34323;52.022;5.686;2022-12-10T07:48:41;81.32;;;23.15;;
48534;SDS011;34323;52.022;5.686;2022-12-10T07:51:07;94.10;;;29.20;;
48534;SDS011;34323;52.022;5.686;2022-12-10T07:53:33;133.48;;;28.55;;
48534;SDS011;34323;52.022;5.686;2022-12-10T07:55:59;107.10;;;27.23;;
48534;SDS011;34323;52.022;5.686;2022-12-10T07:58:26;78.00;;;24.30;;
48534;SDS011;34323;52.022;5.686;2022-12-10T08:00:52;83.20;;;26.17;;
48534;SDS011;34323;52.022;5.686;2022-12-10T08:03:17;108.80;;;29.30;;
48534;SDS011;34323;52.022;5.686;2022-12-10T08:05:43;81.30;;;26.55;;
48534;SDS011;34323;52.022;5.686;2022-12-10T08:08:09;110.15;;;27.55;;
48534;SDS011;34323;52.022;5.686;2022-12-10T08:10:35;107.25;;;28.23;;
48534;SDS011;34323;52.022;5.686;2022-12-10T08:13:02;83.13;;;25.20;;
48534;SDS011;34323;52.022;5.686;2022-12-10T08:15:28;99.97;;;27.52;;
48534;SDS011;34323;52.022;5.686;2022-12-10T08:17:54;89.03;;;24.00;;
48534;SDS011;34323;52.022;5.686;2022-12-10T08:20:20;108.50;;;27.85;;
48534;SDS011;34323;52.022;5.686;2022-12-10T08:22:46;123.10;;;29.10;;
48534;SDS011;34323;52.022;5.686;2022-12-10T08:25:12;79.00;;;25.30;;
48534;SDS011;34323;52.022;5.686;2022-12-10T08:27:37;89.68;;;24.20;;
48534;SDS011;34323;52.022;5.686;2022-12-10T08:30:03;102.53;;;25.50;;
48534;SDS011;34323;52.022;5.686;2022-12-10T08:32:29;112.22;;;25.52;;
48534;SDS011;34323;52.022;5.686;2022-12-10T08:34:54;91.88;;;25.08;;
48534;SDS011;34323;52.022;5.686;2022-12-10T08:37:20;121.45;;;28.52;;
48534;SDS011;34323;52.022;5.686;2022-12-10T08:39:46;107.47;;;25.80;;
48534;SDS011;34323;52.022;5.686;2022-12-10T08:42:11;92.93;;;25.25;;
48534;SDS011;34323;52.022;5.686;2022-12-10T08:44:37;101.57;;;25.25;;
48534;SDS011;34323;52.022;5.686;2022-12-10T08:47:02;93.10;;;22.55;;
48534;SDS011;34323;52.022;5.686;2022-12-10T08:49:28;87.57;;;23.95;;
48534;SDS011;34323;52.022;5.686;2022-12-10T08:51:54;94.20;;;24.42;;
48534;SDS011;34323;52.022;5.686;2022-12-10T08:54:19;101.88;;;26.48;;
48534;SDS011;34323;52.022;5.686;2022-12-10T08:56:45;129.32;;;28.40;;
48534;SDS011;34323;52.022;5.686;2022-12-10T08:59:10;90.05;;;21.33;;
48534;SDS011;34323;52.022;5.686;2022-12-10T09:01:36;78.07;;;23.92;;
48534;SDS011;34323;52.022;5.686;2022-12-10T09:04:02;101.43;;;24.60;;
48534;SDS011;34323;52.022;5.686;2022-12-10T09:06:28;82.22;;;23.73;;
48534;SDS011;34323;52.022;5.686;2022-12-10T09:08:53;82.30;;;21.98;;
48534;SDS011;34323;52.022;5.686;2022-12-10T09:11:21;64.70;;;21.27;;
48534;SDS011;34323;52.022;5.686;2022-12-10T09:13:49;65.25;;;21.15;;
48534;SDS011;34323;52.022;5.686;2022-12-10T09:16:15;63.53;;;21.88;;
48534;SDS011;34323;52.022;5.686;2022-12-10T09:18:40;102.75;;;24.90;;
48534;SDS011;34323;52.022;5.686;2022-12-10T09:21:07;85.72;;;23.33;;
48534;SDS011;34323;52.022;5.686;2022-12-10T09:23:34;92.88;;;24.23;;
48534;SDS011;34323;52.022;5.686;2022-12-10T09:26:01;84.43;;;24.25;;
48534;SDS011;34323;52.022;5.686;2022-12-10T09:28:29;86.55;;;24.40;;
48534;SDS011;34323;52.022;5.686;2022-12-10T09:30:59;97.70;;;25.33;;
48534;SDS011;34323;52.022;5.686;2022-12-10T09:33:26;80.43;;;21.90;;
48534;SDS011;34323;52.022;5.686;2022-12-10T09:35:52;89.40;;;23.20;;
48534;SDS011;34323;52.022;5.686;2022-12-10T09:38:18;96.65;;;24.20;;
48534;SDS011;34323;52.022;5.686;2022-12-10T09:40:53;81.28;;;23.02;;
48534;SDS011;34323;52.022;5.686;2022-12-10T09:43:40;94.88;;;25.65;;
48534;SDS011;34323;52.022;5.686;2022-12-10T09:46:21;91.07;;;24.70;;
48534;SDS011;34323;52.022;5.686;2022-12-10T09:51:37;88.10;;;24.08;;
48534;SDS011;34323;52.022;5.686;2022-12-10T09:54:04;77.30;;;21.77;;
48534;SDS011;34323;52.022;5.686;2022-12-10T09:56:47;106.13;;;28.63;;
48534;SDS011;34323;52.022;5.686;2022-12-10T10:01:47;117.03;;;28.13;;
48534;SDS011;34323;52.022;5.686;2022-12-10T10:06:44;105.60;;;23.85;;
48534;SDS011;34323;52.022;5.686;2022-12-10T10:09:11;134.20;;;27.02;;
48534;SDS011;34323;52.022;5.686;2022-12-10T10:11:39;136.40;;;30.85;;
48534;SDS011;34323;52.022;5.686;2022-12-10T10:14:05;127.05;;;25.20;;
48534;SDS011;34323;52.022;5.686;2022-12-10T10:16:35;88.90;;;23.42;;
48534;SDS011;34323;52.022;5.686;2022-12-10T10:19:03;105.13;;;26.13;;
48534;SDS011;34323;52.022;5.686;2022-12-10T10:21:50;115.45;;;25.83;;
48534;SDS011;34323;52.022;5.686;2022-12-10T10:24:18;84.32;;;22.98;;
48534;SDS011;34323;52.022;5.686;2022-12-10T10:26:48;106.53;;;24.37;;
48534;SDS011;34323;52.022;5.686;2022-12-10T10:29:18;90.68;;;23.58;;
48534;SDS011;34323;52.022;5.686;2022-12-10T10:32:11;86.28;;;23.88;;
48534;SDS011;34323;52.022;5.686;2022-12-10T10:34:38;116.10;;;24.73;;
48534;SDS011;34323;52.022;5.686;2022-12-10T10:37:04;95.38;;;24.77;;
48534;SDS011;34323;52.022;5.686;2022-12-10T10:39:31;100.03;;;24.63;;
48534;SDS011;34323;52.022;5.686;2022-12-10T10:42:08;101.53;;;23.30;;
48534;SDS011;34323;52.022;5.686;2022-12-10T10:44:35;103.72;;;25.88;;
48534;SDS011;34323;52.022;5.686;2022-12-10T10:47:02;97.22;;;26.17;;
48534;SDS011;34323;52.022;5.686;2022-12-10T10:49:49;73.32;;;21.02;;
48534;SDS011;34323;52.022;5.686;2022-12-10T10:52:15;101.63;;;24.15;;
48534;SDS011;34323;52.022;5.686;2022-12-10T10:54:42;88.45;;;22.77;;
48534;SDS011;34323;52.022;5.686;2022-12-10T10:57:14;95.95;;;22.30;;
48534;SDS011;34323;52.022;5.686;2022-12-10T10:59:54;66.03;;;21.02;;
48534;SDS011;34323;52.022;5.686;2022-12-10T11:02:35;81.70;;;24.20;;
48534;SDS011;34323;52.022;5.686;2022-12-10T11:05:22;79.10;;;22.45;;
48534;SDS011;34323;52.022;5.686;2022-12-10T11:08:04;94.82;;;25.48;;
48534;SDS011;34323;52.022;5.686;2022-12-10T11:10:37;72.45;;;22.50;;
48534;SDS011;34323;52.022;5.686;2022-12-10T11:13:21;79.90;;;22.38;;
48534;SDS011;34323;52.022;5.686;2022-12-10T11:15:54;96.13;;;22.83;;
48534;SDS011;34323;52.022;5.686;2022-12-10T11:21:01;94.32;;;23.75;;
48534;SDS011;34323;52.022;5.686;2022-12-10T11:23:38;84.40;;;20.95;;
48534;SDS011;34323;52.022;5.686;2022-12-10T11:40:51;84.07;;;19.73;;
48534;SDS011;34323;52.022;5.686;2022-12-10T11:59:54;84.05;;;21.25;;
48534;SDS011;34323;52.022;5.686;2022-12-10T12:02:32;93.47;;;23.02;;
48534;SDS011;34323;52.022;5.686;2022-12-10T12:07:58;85.00;;;21.42;;
48534;SDS011;34323;52.022;5.686;2022-12-10T12:13:16;82.38;;;19.45;;
48534;SDS011;34323;52.022;5.686;2022-12-10T12:15:52;74.70;;;20.90;;
48534;SDS011;34323;52.022;5.686;2022-12-10T12:21:08;73.72;;;21.30;;
48534;SDS011;34323;52.022;5.686;2022-12-10T12:23:44;81.47;;;21.13;;
48534;SDS011;34323;52.022;5.686;2022-12-10T12:26:20;76.10;;;19.77;;
48534;SDS011;34323;52.022;5.686;2022-12-10T12:29:02;70.15;;;21.92;;
48534;SDS011;34323;52.022;5.686;2022-12-10T12:31:41;84.85;;;21.50;;
48534;SDS011;34323;52.022;5.686;2022-12-10T12:34:20;91.88;;;24.38;;
48534;SDS011;34323;52.022;5.686;2022-12-10T12:36:50;79.97;;;20.63;;
48534;SDS011;34323;52.022;5.686;2022-12-10T12:39:23;97.63;;;23.85;;
48534;SDS011;34323;52.022;5.686;2022-12-10T12:42:03;71.55;;;20.65;;
48534;SDS011;34323;52.022;5.686;2022-12-10T12:45:00;69.65;;;17.83;;
48534;SDS011;34323;52.022;5.686;2022-12-10T12:47:40;76.70;;;19.67;;
48534;SDS011;34323;52.022;5.686;2022-12-10T12:50:11;90.15;;;22.00;;
48534;SDS011;34323;52.022;5.686;2022-12-10T12:52:50;80.68;;;23.25;;
48534;SDS011;34323;52.022;5.686;2022-12-10T12:58:10;62.88;;;19.13;;
48534;SDS011;34323;52.022;5.686;2022-12-10T13:00:57;76.50;;;21.45;;
48534;SDS011;34323;52.022;5.686;2022-12-10T13:03:35;60.47;;;18.35;;
48534;SDS011;34323;52.022;5.686;2022-12-10T13:08:44;64.28;;;21.50;;
48534;SDS011;34323;52.022;5.686;2022-12-10T13:14:04;70.47;;;17.42;;
48534;SDS011;34323;52.022;5.686;2022-12-10T13:19:15;94.85;;;20.42;;
48534;SDS011;34323;52.022;5.686;2022-12-10T13:22:06;67.00;;;20.25;;
48534;SDS011;34323;52.022;5.686;2022-12-10T13:32:13;66.57;;;19.00;;
48534;SDS011;34323;52.022;5.686;2022-12-10T13:34:45;65.65;;;20.95;;
48534;SDS011;34323;52.022;5.686;2022-12-10T13:37:18;54.42;;;19.20;;
48534;SDS011;34323;52.022;5.686;2022-12-10T13:42:38;55.83;;;17.85;;
48534;SDS011;34323;52.022;5.686;2022-12-10T13:45:24;62.28;;;17.02;;
48534;SDS011;34323;52.022;5.686;2022-12-10T13:47:53;69.55;;;18.70;;
48534;SDS011;34323;52.022;5.686;2022-12-10T13:50:41;67.70;;;17.58;;
48534;SDS011;34323;52.022;5.686;2022-12-10T13:53:16;51.40;;;15.93;;
48534;SDS011;34323;52.022;5.686;2022-12-10T13:55:53;66.43;;;19.17;;
48534;SDS011;34323;52.022;5.686;2022-12-10T14:04:27;98.03;;;17.90;;
48534;SDS011;34323;52.022;5.686;2022-12-10T14:07:01;86.55;;;20.63;;
48534;SDS011;34323;52.022;5.686;2022-12-10T14:09:29;69.22;;;21.65;;
48534;SDS011;34323;52.022;5.686;2022-12-10T14:12:06;44.58;;;13.27;;
48534;SDS011;34323;52.022;5.686;2022-12-10T14:14:39;51.42;;;17.67;;
48534;SDS011;34323;52.022;5.686;2022-12-10T14:17:18;66.57;;;19.27;;
48534;SDS011;34323;52.022;5.686;2022-12-10T14:19:46;52.70;;;16.33;;
48534;SDS011;34323;52.022;5.686;2022-12-10T14:22:18;95.53;;;17.92;;
48534;SDS011;34323;52.022;5.686;2022-12-10T14:24:50;75.38;;;21.13;;
48534;SDS011;34323;52.022;5.686;2022-12-10T14:27:18;82.18;;;18.83;;
48534;SDS011;34323;52.022;5.686;2022-12-10T14:29:49;79.00;;;20.88;;
48534;SDS011;34323;52.022;5.686;2022-12-10T14:32:17;69.70;;;17.95;;
48534;SDS011;34323;52.022;5.686;2022-12-10T14:34:52;69.57;;;17.10;;
48534;SDS011;34323;52.022;5.686;2022-12-10T14:37:23;68.40;;;17.58;;
48534;SDS011;34323;52.022;5.686;2022-12-10T14:39:50;56.95;;;18.38;;
48534;SDS011;34323;52.022;5.686;2022-12-10T14:42:16;46.28;;;15.05;;
48534;SDS011;34323;52.022;5.686;2022-12-10T14:44:42;75.43;;;18.23;;
48534;SDS011;34323;52.022;5.686;2022-12-10T14:47:17;47.95;;;14.77;;
48534;SDS011;34323;52.022;5.686;2022-12-10T14:49:45;55.70;;;16.42;;
48534;SDS011;34323;52.022;5.686;2022-12-10T14:52:14;72.90;;;15.60;;
48534;SDS011;34323;52.022;5.686;2022-12-10T14:54:44;70.72;;;17.58;;
48534;SDS011;34323;52.022;5.686;2022-12-10T14:57:27;56.67;;;15.10;;
48534;SDS011;34323;52.022;5.686;2022-12-10T15:00:03;67.70;;;15.70;;
48534;SDS011;34323;52.022;5.686;2022-12-10T15:02:42;75.20;;;17.00;;
48534;SDS011;34323;52.022;5.686;2022-12-10T15:05:11;72.55;;;17.02;;
48534;SDS011;34323;52.022;5.686;2022-12-10T15:07:43;115.43;;;20.52;;
48534;SDS011;34323;52.022;5.686;2022-12-10T15:10:26;73.45;;;15.23;;
48534;SDS011;34323;52.022;5.686;2022-12-10T15:12:57;59.30;;;15.88;;
48534;SDS011;34323;52.022;5.686;2022-12-10T15:15:31;53.58;;;15.57;;
48534;SDS011;34323;52.022;5.686;2022-12-10T15:18:14;60.58;;;15.05;;
48534;SDS011;34323;52.022;5.686;2022-12-10T15:30:55;62.42;;;15.77;;
48534;SDS011;34323;52.022;5.686;2022-12-10T15:33:28;46.67;;;17.50;;
48534;SDS011;34323;52.022;5.686;2022-12-10T15:36:01;62.35;;;16.05;;
48534;SDS011;34323;52.022;5.686;2022-12-10T15:38:27;56.47;;;16.83;;
48534;SDS011;34323;52.022;5.686;2022-12-10T15:41:00;78.90;;;16.77;;
48534;SDS011;34323;52.022;5.686;2022-12-10T15:43:57;62.88;;;16.75;;
48534;SDS011;34323;52.022;5.686;2022-12-10T15:46:28;90.22;;;19.70;;
48534;SDS011;34323;52.022;5.686;2022-12-10T15:48:54;73.60;;;19.67;;
48534;SDS011;34323;52.022;5.686;2022-12-10T15:51:19;70.90;;;18.65;;
48534;SDS011;34323;52.022;5.686;2022-12-10T15:53:45;77.95;;;17.92;;
48534;SDS011;34323;52.022;5.686;2022-12-10T15:56:11;56.53;;;16.83;;
48534;SDS011;34323;52.022;5.686;2022-12-10T15:58:36;65.30;;;19.35;;
48534;SDS011;34323;52.022;5.686;2022-12-10T16:01:02;78.13;;;22.20;;
48534;SDS011;34323;52.022;5.686;2022-12-10T16:03:28;92.70;;;19.50;;
48534;SDS011;34323;52.022;5.686;2022-12-10T16:05:54;76.60;;;18.27;;
48534;SDS011;34323;52.022;5.686;2022-12-10T16:08:27;73.57;;;20.05;;
48534;SDS011;34323;52.022;5.686;2022-12-10T16:10:54;66.50;;;18.48;;
48534;SDS011;34323;52.022;5.686;2022-12-10T16:13:26;79.43;;;17.55;;
48534;SDS011;34323;52.022;5.686;2022-12-10T16:15:55;74.68;;;19.35;;
48534;SDS011;34323;52.022;5.686;2022-12-10T16:18:35;56.42;;;20.50;;
48534;SDS011;34323;52.022;5.686;2022-12-10T16:21:02;64.88;;;19.40;;
48534;SDS011;34323;52.022;5.686;2022-12-10T16:23:28;81.72;;;19.80;;
48534;SDS011;34323;52.022;5.686;2022-12-10T16:25:54;59.65;;;18.23;;